Time;durP1;ratioP1;P1;durP2;ratioP2;P2;SDS_P1;SDS_P2;PMS_P1;PMS_P2;Temp;Humidity;BMP_temperature;BMP_pressure;BME280_temperature;BME280_humidity;BME280_pressure;Samples;Min_cycle;Max_cycle;Signal;HPM_P1;HPM_P2
2022/08/22 00:00:33;;;;;;;10.07;0.95;;;;;;;25.69;55.09;99390.84;7314509;19;129013;-41
2022/08/22 00:03:04;;;;;;;37.78;2.92;;;;;;;25.78;56.29;99395.09;7316018;19;130586;-39
2022/08/22 00:05:48;;;;;;;25.27;2.15;;;;;;;25.87;57.92;99398.47;7314555;19;128882;-41
2022/08/22 00:08:34;;;;;;;25.33;2.30;;;;;;;25.96;60.05;99403.56;7316131;19;129223;-38
2022/08/22 00:11:11;;;;;;;17.58;1.42;;;;;;;26.00;60.05;99399.56;7317165;19;129011;-40
2022/08/22 00:14:16;;;;;;;16.92;1.67;;;;;;;26.03;60.64;99396.63;7316913;19;131083;-41
2022/08/22 00:17:19;;;;;;;25.48;2.25;;;;;;;26.04;60.01;99395.63;7317024;19;129035;-40
2022/08/22 00:19:57;;;;;;;36.85;3.05;;;;;;;26.04;60.09;99392.19;7315182;19;128842;-40
2022/08/22 00:22:30;;;;;;;;;;;;;;;26.09;60.60;99393.31;7316420;19;128944;-41
2022/08/22 00:25:07;;;;;;;17.25;1.52;;;;;;;26.06;60.43;99392.81;7315289;19;129356;-40
2022/08/22 00:27:52;;;;;;;16.08;1.38;;;;;;;26.05;60.53;99393.84;7316062;19;128898;-38
2022/08/22 00:30:18;;;;;;;10.65;1.05;;;;;;;26.03;59.30;99399.25;7313304;19;128743;-40
2022/08/22 00:32:51;;;;;;;13.50;1.20;;;;;;;25.98;60.74;99384.94;7314520;19;129299;-41
2022/08/22 00:35:25;;;;;;;23.05;1.92;;;;;;;26.04;60.53;99400.91;7314611;19;130383;-41
2022/08/22 00:38:09;;;;;;;39.67;3.17;;;;;;;26.04;59.62;99395.63;7315575;19;129336;-42
2022/08/22 00:40:58;;;;;;;37.92;3.03;;;;;;;26.05;60.30;99402.53;7313180;19;128984;-39
2022/08/22 00:43:30;;;;;;;39.00;3.03;;;;;;;26.03;59.71;99399.25;7315251;19;130468;-40
2022/08/22 00:46:22;;;;;;;22.05;2.05;;;;;;;25.87;56.89;99399.31;7313806;19;130407;-37
2022/08/22 00:48:48;;;;;;;38.40;3.22;;;;;;;25.65;54.68;99392.19;7315468;19;129281;-40
2022/08/22 00:51:31;;;;;;;16.23;1.40;;;;;;;25.82;58.85;99401.63;7315442;19;129158;-37
2022/08/22 00:54:22;;;;;;;16.90;1.80;;;;;;;25.89;58.20;99407.88;7315175;19;130661;-39
2022/08/22 00:56:58;;;;;;;16.05;1.55;;;;;;;25.91;60.17;99397.16;7315309;19;129592;-41
2022/08/22 00:59:39;;;;;;;15.88;1.38;;;;;;;25.98;59.73;99409.44;7314671;19;129540;-41
2022/08/22 01:02:20;;;;;;;16.25;1.42;;;;;;;25.93;60.16;99397.81;7314635;19;129308;-41
2022/08/22 01:04:58;;;;;;;16.23;1.52;;;;;;;26.01;58.83;99411.81;7312642;19;129158;-38
2022/08/22 01:07:47;;;;;;;18.85;1.65;;;;;;;26.02;60.58;99402.91;7314888;19;129209;-40
2022/08/22 01:10:40;;;;;;;15.45;1.52;;;;;;;26.05;60.75;99413.09;7314452;19;129176;-39
2022/08/22 01:13:31;;;;;;;15.05;1.52;;;;;;;26.05;61.40;99415.72;7313843;19;128958;-40
2022/08/22 01:16:20;;;;;;;16.30;1.48;;;;;;;26.04;61.10;99408.81;7312813;19;130364;-42
2022/08/22 01:18:55;;;;;;;15.52;1.30;;;;;;;26.00;59.74;99404.84;7314325;19;129925;-41
2022/08/22 01:21:29;;;;;;;24.38;2.15;;;;;;;25.99;59.58;99407.66;7314133;19;128651;-40
2022/08/22 01:24:29;;;;;;;39.38;3.10;;;;;;;26.04;60.67;99419.34;7314422;19;128717;-39
2022/08/22 01:27:40;;;;;;;23.58;2.03;;;;;;;26.05;61.16;99420.97;7313736;19;129302;-40
2022/08/22 01:30:24;;;;;;;14.85;1.33;;;;;;;26.02;60.97;99408.16;7314662;19;129901;-41
2022/08/22 01:33:17;;;;;;;15.43;1.42;;;;;;;25.91;57.18;99413.78;7314713;19;129213;-41
2022/08/22 01:36:12;;;;;;;17.70;1.73;;;;;;;25.70;54.98;99418.81;7311189;19;128785;-41
2022/08/22 01:39:30;;;;;;;9.20;0.88;;;;;;;25.86;59.31;99418.75;7313869;19;131430;-41
2022/08/22 01:42:04;;;;;;;28.43;2.40;;;;;;;25.93;58.83;99414.44;7307272;19;129516;-39
2022/08/22 01:44:57;;;;;;;26.05;2.30;;;;;;;25.98;60.02;99420.00;7309668;19;129017;-40
2022/08/22 01:47:28;;;;;;;15.48;1.38;;;;;;;26.00;59.87;99418.00;7313039;19;129242;-39
2022/08/22 01:50:11;;;;;;;16.73;1.48;;;;;;;26.02;60.02;99418.69;7314338;19;130209;-41
2022/08/22 01:52:44;;;;;;;15.98;1.40;;;;;;;25.93;60.17;99403.91;7313408;19;130548;-39
2022/08/22 01:55:28;;;;;;;16.33;1.38;;;;;;;26.02;60.64;99413.44;7311915;19;129179;-41
2022/08/22 01:58:02;;;;;;;17.00;1.42;;;;;;;26.01;60.16;99421.47;7313552;19;129241;-41
2022/08/22 02:00:50;;;;;;;18.67;1.65;;;;;;;26.01;59.50;99411.81;7311253;19;129307;-42
2022/08/22 02:03:29;;;;;;;10.07;0.93;;;;;;;26.03;60.79;99420.31;7312222;19;129824;-39
2022/08/22 02:06:18;;;;;;;30.70;2.50;;;;;;;26.03;61.34;99425.59;7311193;19;128917;-41
2022/08/22 02:08:57;;;;;;;24.75;2.08;;;;;;;26.03;60.98;99425.59;7312521;19;129478;-38
2022/08/22 02:11:38;;;;;;;28.52;2.33;;;;;;;26.05;61.45;99413.09;7312631;19;129388;-40
2022/08/22 02:14:18;;;;;;;34.58;2.83;;;;;;;26.03;61.05;99420.31;7311966;19;129493;-38
2022/08/22 02:16:51;;;;;;;27.92;2.30;;;;;;;26.03;60.13;99415.06;7312882;19;128987;-40
2022/08/22 02:19:16;;;;;;;15.77;1.48;;;;;;;25.89;56.78;99417.56;7312819;19;128996;-40
2022/08/22 02:22:29;;;;;;;17.90;2.03;;;;;;;25.70;54.24;99424.09;7311784;19;130323;-39
2022/08/22 02:25:04;;;;;;;21.42;1.98;;;;;;;25.82;58.31;99424.53;7310750;19;129392;-42
2022/08/22 02:27:51;;;;;;;17.80;1.50;;;;;;;25.92;60.01;99433.03;7313395;19;129150;-38
2022/08/22 02:30:25;;;;;;;15.57;1.38;;;;;;;25.97;59.78;99430.69;7312934;19;128747;-39
2022/08/22 02:32:59;;;;;;;15.82;1.40;;;;;;;26.00;59.65;99431.19;7311075;19;129252;-40
2022/08/22 02:35:31;;;;;;;16.00;1.48;;;;;;;25.93;59.07;99414.44;7309793;19;131031;-41
2022/08/22 02:38:17;;;;;;;31.27;2.53;;;;;;;26.00;60.76;99431.19;7312636;19;129300;-41
2022/08/22 02:41:00;;;;;;;37.75;2.97;;;;;;;26.01;60.76;99424.97;7309960;19;129109;-42
2022/08/22 02:43:43;;;;;;;37.40;2.95;;;;;;;26.02;60.64;99431.88;7311636;19;130835;-38
2022/08/22 02:46:16;;;;;;;28.35;2.33;;;;;;;26.02;60.23;99434.50;7312231;19;129301;-36
2022/08/22 02:48:52;;;;;;;19.92;1.85;;;;;;;26.03;60.02;99430.06;7312970;19;129315;-38
2022/08/22 02:51:30;;;;;;;16.00;1.37;;;;;;;26.03;59.82;99430.88;7312261;19;129047;-41
2022/08/22 02:54:04;;;;;;;16.48;1.50;;;;;;;26.03;60.73;99425.59;7315632;19;129431;-40
2022/08/22 02:56:39;;;;;;;10.68;1.00;;;;;;;26.02;60.33;99423.97;7318464;19;129222;-40
2022/08/22 02:59:22;;;;;;;17.77;1.67;;;;;;;26.01;60.68;99426.75;7316967;19;129384;-40
2022/08/22 03:01:47;;;;;;;15.45;1.42;;;;;;;26.00;59.18;99423.28;7318551;19;128923;-41
2022/08/22 03:04:20;;;;;;;31.80;2.53;;;;;;;25.95;59.44;99411.63;7319010;19;129587;-38
2022/08/22 03:07:19;;;;;;;17.95;1.67;;;;;;;25.71;55.37;99425.72;7318611;19;130506;-39
2022/08/22 03:09:44;;;;;;;20.02;1.70;;;;;;;25.74;55.41;99425.38;7319077;19;129004;-39
2022/08/22 03:12:24;;;;;;;19.53;1.60;;;;;;;25.81;58.97;99414.97;7318712;19;129136;-40
2022/08/22 03:15:15;;;;;;;15.27;1.38;;;;;;;25.85;59.86;99408.38;7317871;19;129535;-41
2022/08/22 03:18:04;;;;;;;14.90;1.30;;;;;;;25.96;59.97;99422.00;7318084;19;129337;-39
2022/08/22 03:20:51;;;;;;;17.60;1.55;;;;;;;26.00;60.17;99419.84;7316893;19;129062;-41
2022/08/22 03:23:47;;;;;;;14.07;1.27;;;;;;;26.01;60.71;99419.69;7317273;19;128979;-40
2022/08/22 03:26:35;;;;;;;16.50;1.77;;;;;;;26.02;60.49;99417.88;7318498;19;129408;-42
2022/08/22 03:29:24;;;;;;;15.20;1.42;;;;;;;26.03;60.75;99422.16;7318289;19;129807;-41
2022/08/22 03:32:06;;;;;;;16.25;1.33;;;;;;;26.02;61.18;99413.44;7318044;19;129262;-41
2022/08/22 03:34:32;;;;;;;17.40;1.73;;;;;;;26.00;59.41;99412.75;7316747;19;129102;-38
2022/08/22 03:37:25;;;;;;;11.77;1.15;;;;;;;26.01;59.73;99417.06;7317749;19;130430;-39
2022/08/22 03:40:01;;;;;;;13.40;1.25;;;;;;;26.01;61.01;99417.06;7315879;19;131099;-41
2022/08/22 03:42:54;;;;;;;16.67;1.60;;;;;;;26.03;61.22;99422.16;7317392;19;128993;-41
2022/08/22 03:45:54;;;;;;;16.80;1.50;;;;;;;26.02;61.21;99412.59;7314927;19;129292;-40
2022/08/22 03:48:47;;;;;;;14.45;1.25;;;;;;;26.02;61.15;99412.59;7316845;19;129253;-41
2022/08/22 03:51:37;;;;;;;27.38;2.63;;;;;;;26.00;60.99;99414.59;7316356;19;129784;-39
2022/08/22 03:54:30;;;;;;;13.32;1.23;;;;;;;25.67;55.27;99408.59;7317117;19;128969;-41
2022/08/22 03:57:29;;;;;;;19.65;1.73;;;;;;;25.80;57.68;99408.09;7317501;19;129238;-41
2022/08/22 04:00:20;;;;;;;19.27;1.70;;;;;;;25.88;57.75;99421.22;7317133;19;130850;-37
2022/08/22 04:02:54;;;;;;;21.13;1.70;;;;;;;25.94;58.68;99421.34;7316886;19;129280;-41
2022/08/22 04:05:22;;;;;;;16.73;1.45;;;;;;;25.97;59.22;99413.09;7314680;19;128791;-41
2022/08/22 04:08:05;;;;;;;16.02;1.48;;;;;;;26.02;60.58;99420.50;7315741;19;128957;-40
2022/08/22 04:11:00;;;;;;;16.77;1.55;;;;;;;26.00;58.97;99415.38;7315555;19;129479;-41
2022/08/22 04:14:02;;;;;;;17.55;1.48;;;;;;;26.01;60.55;99417.06;7312190;19;130322;-41
2022/08/22 04:16:46;;;;;;;25.67;2.30;;;;;;;26.02;58.36;99421.34;7316411;19;129049;-42
2022/08/22 04:19:23;;;;;;;16.73;1.42;;;;;;;25.96;58.35;99408.00;7315898;19;129888;-40
2022/08/22 04:22:12;;;;;;;14.00;1.33;;;;;;;25.98;60.22;99412.09;7315293;19;130197;-38
2022/08/22 04:24:56;;;;;;;16.33;1.73;;;;;;;25.97;60.33;99407.81;7314266;19;130417;-40
2022/08/22 04:27:32;;;;;;;16.30;1.50;;;;;;;26.01;60.07;99417.06;7315947;19;129046;-42
2022/08/22 04:30:24;;;;;;;14.35;1.30;;;;;;;26.03;61.04;99419.53;7316149;19;129124;-39
2022/08/22 04:33:13;;;;;;;20.10;1.92;;;;;;;26.03;60.09;99430.88;7314772;19;129140;-41
2022/08/22 04:35:45;;;;;;;14.20;1.30;;;;;;;26.02;60.24;99431.88;7313147;19;131066;-41
2022/08/22 04:38:26;;;;;;;22.58;1.83;;;;;;;26.00;60.25;99430.38;7315665;19;128821;-41
2022/08/22 04:40:57;;;;;;;29.20;2.38;;;;;;;25.66;54.95;99428.88;7313871;19;128921;-39
2022/08/22 04:43:50;;;;;;;37.53;3.10;;;;;;;25.76;57.38;99427.84;7315442;19;129526;-41
2022/08/22 04:46:37;;;;;;;33.38;2.70;;;;;;;25.85;59.93;99427.63;7314792;19;129383;-39
2022/08/22 04:49:24;;;;;;;40.93;3.13;;;;;;;25.93;60.83;99432.88;7315119;19;128971;-40
2022/08/22 04:52:03;;;;;;;43.50;3.67;;;;;;;25.98;60.05;99430.53;7314277;19;128918;-39
2022/08/22 04:54:54;;;;;;;17.73;1.58;;;;;;;26.00;60.20;99433.81;7314254;19;129177;-40
2022/08/22 04:57:24;;;;;;;27.30;2.30;;;;;;;26.00;59.86;99425.91;7315055;19;129248;-39
2022/08/22 04:59:51;;;;;;;16.85;1.63;;;;;;;26.01;59.23;99432.00;7316137;19;129170;-42
2022/08/22 05:02:22;;;;;;;13.40;1.45;;;;;;;26.00;59.88;99436.47;7314524;19;129201;-41
2022/08/22 05:05:00;;;;;;;15.27;1.45;;;;;;;26.00;60.98;99433.81;7314153;19;130416;-39
2022/08/22 05:07:40;;;;;;;18.30;1.65;;;;;;;26.01;59.68;99446.06;7314908;19;130477;-41
2022/08/22 05:10:15;;;;;;;38.90;2.97;;;;;;;25.96;60.67;99429.91;7314228;19;128863;-39
2022/08/22 05:12:44;;;;;;;31.75;2.50;;;;;;;26.01;59.13;99448.69;7314866;19;129452;-39
2022/08/22 05:15:20;;;;;;;15.88;1.45;;;;;;;26.01;60.65;99451.31;7313156;19;130219;-40
2022/08/22 05:17:49;;;;;;;15.07;1.40;;;;;;;26.00;59.21;99452.25;7314273;19;129199;-41
2022/08/22 05:20:19;;;;;;;15.73;1.38;;;;;;;26.01;59.99;99446.06;7313428;19;130097;-41
2022/08/22 05:22:51;;;;;;;30.77;2.55;;;;;;;26.00;60.33;99451.47;7314204;19;129537;-41
2022/08/22 05:25:23;;;;;;;29.27;2.40;;;;;;;25.89;57.12;99459.72;7312360;19;130373;-39
2022/08/22 05:27:54;;;;;;;15.55;1.42;;;;;;;25.67;55.11;99456.84;7314750;19;129409;-40
2022/08/22 05:30:24;;;;;;;17.45;1.52;;;;;;;25.73;55.92;99455.34;7315424;19;129235;-41
2022/08/22 05:33:22;;;;;;;14.52;1.33;;;;;;;25.84;60.11;99468.13;7313529;19;129429;-41
2022/08/22 05:35:57;;;;;;;14.50;1.37;;;;;;;25.84;59.87;99452.34;7311554;19;131234;-41
2022/08/22 05:38:28;;;;;;;13.35;1.23;;;;;;;25.95;59.60;99464.31;7313489;19;129252;-39
2022/08/22 05:41:01;;;;;;;27.50;2.20;;;;;;;25.93;59.42;99466.31;7311669;19;129364;-42
2022/08/22 05:43:27;;;;;;;31.13;2.55;;;;;;;25.97;58.46;99465.78;7313883;19;129421;-38
2022/08/22 05:45:57;;;;;;;8.67;1.10;;;;;;;25.98;58.91;99477.94;7312026;19;129549;-41
2022/08/22 05:48:35;;;;;;;27.08;2.15;;;;;;;25.98;59.51;99469.25;7312685;19;131210;-41
2022/08/22 05:51:14;;;;;;;13.57;1.17;;;;;;;25.98;59.90;99470.03;7313850;19;129128;-41
2022/08/22 05:53:45;;;;;;;23.20;1.95;;;;;;;25.97;60.05;99480.75;7312018;19;129007;-39
2022/08/22 05:56:34;;;;;;;38.92;3.20;;;;;;;26.00;59.73;99473.34;7313253;19;129024;-41
2022/08/22 05:59:10;;;;;;;28.90;2.35;;;;;;;25.99;60.99;99476.97;7312979;19;129356;-39
2022/08/22 06:02:08;;;;;;;51.70;4.93;;;;;;;25.99;60.90;99487.50;7309974;19;128969;-40
2022/08/22 06:04:33;;;;;;;38.03;3.23;;;;;;;25.99;58.73;99482.25;7309406;19;129415;-38
2022/08/22 06:07:17;;;;;;;18.07;1.57;;;;;;;25.90;60.83;99462.19;7313718;19;129613;-38
2022/08/22 06:09:45;;;;;;;15.63;1.33;;;;;;;25.97;60.58;99484.22;7313635;19;129893;-41
2022/08/22 06:12:18;;;;;;;15.82;1.38;;;;;;;25.98;60.19;99480.59;7312467;19;129128;-41
2022/08/22 06:15:12;;;;;;;13.45;1.20;;;;;;;25.65;54.96;99479.88;7311730;19;129739;-41
2022/08/22 06:17:43;;;;;;;15.57;1.35;;;;;;;25.68;55.37;99486.63;7313346;19;129694;-41
2022/08/22 06:20:16;;;;;;;15.90;1.40;;;;;;;25.81;58.42;99486.91;7311693;19;130280;-40
2022/08/22 06:22:50;;;;;;;34.63;2.83;;;;;;;25.86;59.62;99476.69;7312415;19;128810;-42
2022/08/22 06:25:23;;;;;;;37.13;2.95;;;;;;;25.92;60.15;99485.72;7310679;19;129024;-40
2022/08/22 06:27:50;;;;;;;15.85;1.50;;;;;;;25.94;58.92;99484.56;7313198;19;129261;-41
2022/08/22 06:30:17;;;;;;;6.50;0.65;;;;;;;25.97;59.10;99480.75;7312604;19;130352;-41
2022/08/22 06:32:48;;;;;;;15.63;1.33;;;;;;;25.96;59.58;99487.88;7312796;19;129283;-40
2022/08/22 06:36:29;;;;;;;38.13;2.90;;;;;;;25.98;60.06;99485.84;7310583;19;129110;-41
2022/08/22 06:38:27;;;;;;;24.77;2.45;;;;;;;25.99;60.07;99489.31;7311738;19;129587;-41
2022/08/22 06:40:54;;;;;;;33.20;2.75;;;;;;;25.98;59.01;99485.84;7309613;19;129534;-38
2022/08/22 06:43:21;;;;;;;;;;;;;;;26.04;60.97;99494.94;7312987;19;129196;-41
2022/08/22 06:45:48;;;;;;;15.43;1.37;;;;;;;25.98;58.68;99491.13;7310152;19;129539;-40
2022/08/22 06:48:18;;;;;;;16.85;1.48;;;;;;;25.97;59.66;99489.50;7311336;19;130824;-40
2022/08/22 06:50:49;;;;;;;24.77;2.05;;;;;;;25.98;59.54;99496.41;7312087;19;130993;-40
2022/08/22 06:53:36;;;;;;;37.58;2.92;;;;;;;25.91;60.93;99486.72;7311225;19;128857;-37
2022/08/22 06:56:06;;;;;;;41.70;3.20;;;;;;;25.98;59.57;99496.41;7311836;19;128898;-40
2022/08/22 06:58:40;;;;;;;23.60;2.05;;;;;;;25.98;61.17;99490.31;7311705;19;129219;-39
2022/08/22 07:01:13;;;;;;;16.17;1.33;;;;;;;25.67;56.13;99482.34;7310974;19;130694;-39
2022/08/22 07:03:43;;;;;;;23.60;2.22;;;;;;;25.63;54.70;99494.22;7310963;19;129284;-40
2022/08/22 07:06:14;;;;;;;17.90;1.50;;;;;;;25.73;57.24;99492.22;7311436;19;129603;-39
2022/08/22 07:08:40;;;;;;;46.78;3.78;;;;;;;25.81;58.31;99484.28;7311000;19;129136;-38
2022/08/22 07:11:26;;;;;;;18.77;1.63;;;;;;;25.89;60.35;99497.44;7312292;19;130409;-40
2022/08/22 07:14:24;;;;;;;14.63;1.35;;;;;;;25.95;60.58;99498.56;7312239;19;128946;-40
2022/08/22 07:16:55;;;;;;;24.27;2.10;;;;;;;25.96;59.76;99502.84;7310656;19;129266;-37
2022/08/22 07:19:29;;;;;;;14.55;1.35;;;;;;;25.97;59.56;99494.75;7310819;19;129314;-40
2022/08/22 07:21:56;;;;;;;16.42;1.42;;;;;;;25.96;59.12;99503.66;7309784;19;129955;-39
2022/08/22 07:24:30;;;;;;;16.33;1.60;;;;;;;25.96;59.98;99498.41;7310478;19;129088;-40
2022/08/22 07:26:55;;;;;;;33.15;2.70;;;;;;;25.95;59.53;99496.75;7310453;19;128796;-38
2022/08/22 07:29:33;;;;;;;15.60;1.30;;;;;;;25.96;60.36;99501.03;7311713;19;128998;-40
2022/08/22 07:32:12;;;;;;;15.02;1.40;;;;;;;25.96;61.00;99503.66;7310362;19;129003;-39
2022/08/22 07:35:11;;;;;;;15.85;1.48;;;;;;;25.98;61.38;99501.66;7310862;19;129203;-39
2022/08/22 07:37:43;;;;;;;10.60;1.02;;;;;;;25.98;60.21;99499.03;7311467;19;128817;-40
2022/08/22 07:40:36;;;;;;;15.15;1.30;;;;;;;25.97;61.29;99499.19;7315872;19;130119;-41
2022/08/22 07:43:30;;;;;;;12.30;1.17;;;;;;;25.96;61.21;99505.47;7317685;19;130577;-40
2022/08/22 07:46:07;;;;;;;14.80;1.30;;;;;;;25.98;59.99;99501.66;7316106;19;130255;-41
2022/08/22 07:48:41;;;;;;;15.23;1.40;;;;;;;25.67;54.96;99504.22;7317360;19;128920;-39
2022/08/22 07:51:16;;;;;;;17.40;1.52;;;;;;;25.64;54.32;99501.09;7317181;19;129454;-39
2022/08/22 07:53:55;;;;;;;18.52;1.70;;;;;;;25.75;59.06;99500.75;7315709;19;129554;-40
2022/08/22 07:56:27;;;;;;;23.23;2.05;;;;;;;25.83;59.29;99500.75;7317596;19;129016;-40
2022/08/22 07:59:05;;;;;;;29.80;2.38;;;;;;;25.90;60.24;99495.63;7316669;19;128896;-37
2022/08/22 08:01:31;;;;;;;28.92;2.40;;;;;;;25.94;58.63;99500.38;7314701;19;129370;-38
2022/08/22 08:04:02;;;;;;;14.80;1.33;;;;;;;25.97;59.44;99505.31;7316826;19;129405;-40
2022/08/22 08:06:31;;;;;;;20.00;1.80;;;;;;;25.95;58.00;99499.38;7315854;19;128866;-40
2022/08/22 08:08:57;;;;;;;20.55;1.75;;;;;;;25.95;58.56;99502.00;7316440;19;129177;-40
2022/08/22 08:11:26;;;;;;;36.30;2.97;;;;;;;25.95;59.06;99496.75;7316138;19;130077;-38
2022/08/22 08:13:56;;;;;;;19.17;1.65;;;;;;;25.97;58.81;99501.84;7317190;19;130606;-41
2022/08/22 08:16:26;;;;;;;20.83;1.98;;;;;;;25.95;59.61;99504.63;7317007;19;128838;-41
2022/08/22 08:18:55;;;;;;;7.65;0.70;;;;;;;25.96;59.25;99503.66;7315885;19;129604;-40
2022/08/22 08:21:28;;;;;;;40.70;3.15;;;;;;;25.95;59.91;99502.00;7313854;19;130323;-39
2022/08/22 08:23:55;;;;;;;32.08;2.65;;;;;;;25.95;59.30;99502.00;7316318;19;129449;-40
2022/08/22 08:29:32;;;;;;;38.55;3.20;;;;;;;25.96;58.86;99497.56;7315938;19;129008;-40
2022/08/22 08:32:00;;;;;;;8.60;0.90;;;;;;;25.95;59.23;99502.00;7316332;19;129521;-40
2022/08/22 08:34:28;;;;;;;18.77;1.67;;;;;;;25.94;59.04;99503.00;7314218;19;129423;-40
2022/08/22 08:36:55;;;;;;;19.95;1.75;;;;;;;25.61;55.36;99504.09;7315399;19;129269;-40
2022/08/22 08:39:35;;;;;;;40.30;2.95;;;;;;;25.67;56.56;99496.34;7315304;19;128978;-39
2022/08/22 08:42:09;;;;;;;26.70;2.08;;;;;;;25.80;57.52;99502.91;7312610;19;129586;-38
2022/08/22 08:45:08;;;;;;;15.75;1.60;;;;;;;25.86;60.31;99497.78;7315109;19;130344;-40
2022/08/22 08:47:34;;;;;;;25.98;2.30;;;;;;;25.90;58.42;99493.00;7315874;19;128849;-39
2022/08/22 08:50:20;;;;;;;24.50;2.37;;;;;;;25.94;60.34;99495.09;7313554;19;129291;-41
2022/08/22 08:52:45;;;;;;;16.02;1.45;;;;;;;25.93;58.18;99490.84;7314958;19;130176;-40
2022/08/22 08:55:40;;;;;;;3.50;0.53;;;;;;;25.84;60.17;99489.22;7312735;19;130009;-39
2022/08/22 08:58:15;;;;;;;12.48;1.15;;;;;;;25.94;60.68;99495.09;7315518;19;129037;-40
2022/08/22 09:00:41;;;;;;;4.35;0.50;;;;;;;25.96;59.46;99489.66;7313180;19;128936;-39
2022/08/22 09:03:25;;;;;;;39.28;3.13;;;;;;;25.97;58.51;99496.56;7314330;19;130077;-39
2022/08/22 09:06:06;;;;;;;30.05;2.50;;;;;;;25.96;60.47;99498.41;7311861;19;131090;-41
2022/08/22 09:09:09;;;;;;;24.88;2.05;;;;;;;25.94;60.95;99489.84;7315315;19;129230;-39
2022/08/22 09:11:53;;;;;;;53.38;4.57;;;;;;;25.93;59.13;99493.47;7314182;19;129573;-39
2022/08/22 09:14:18;;;;;;;37.80;3.08;;;;;;;25.93;59.61;99496.09;7313837;19;129776;-38
2022/08/22 09:16:54;;;;;;;4.60;0.50;;;;;;;25.91;60.67;99500.72;7315463;19;130083;-42
2022/08/22 09:19:26;;;;;;;2.15;0.40;;;;;;;25.84;60.69;99489.22;7315207;19;128904;-41
2022/08/22 09:22:13;;;;;;;15.02;1.42;;;;;;;25.91;59.56;99500.72;7313010;19;129020;-41
2022/08/22 09:24:47;;;;;;;17.52;1.77;;;;;;;25.60;54.72;99500.63;7313774;19;130157;-40
2022/08/22 09:27:51;;;;;;;15.88;1.38;;;;;;;25.69;57.40;99506.69;7313999;19;130166;-41
2022/08/22 09:30:21;;;;;;;17.50;1.58;;;;;;;25.79;58.09;99502.06;7311468;19;128970;-40
2022/08/22 09:32:57;;;;;;;17.50;1.60;;;;;;;25.84;59.57;99491.84;7312865;19;129002;-39
2022/08/22 09:35:44;;;;;;;32.92;2.80;;;;;;;25.90;60.20;99503.53;7312633;19;131082;-40
2022/08/22 09:38:29;;;;;;;20.17;1.63;;;;;;;25.93;60.55;99506.66;7313959;19;131025;-39
2022/08/22 09:41:23;;;;;;;34.80;2.67;;;;;;;25.93;60.90;99503.19;7313365;19;129225;-38
2022/08/22 09:44:15;;;;;;;28.63;2.22;;;;;;;25.94;60.83;99500.38;7313299;19;129556;-39
2022/08/22 09:46:55;;;;;;;21.27;1.67;;;;;;;25.87;58.43;99488.88;7313939;19;129471;-39
2022/08/22 09:49:58;;;;;;;30.10;2.45;;;;;;;25.94;60.71;99510.09;7313511;19;131279;-38
2022/08/22 09:52:26;;;;;;;15.52;1.38;;;;;;;25.94;59.50;99504.81;7312560;19;129292;-39
2022/08/22 09:55:10;;;;;;;26.38;2.28;;;;;;;25.93;59.00;99509.28;7311814;19;129230;-40
2022/08/22 09:57:56;;;;;;;38.75;3.05;;;;;;;25.92;58.79;99512.88;7312812;19;129542;-39
2022/08/22 10:00:39;;;;;;;40.22;3.13;;;;;;;25.93;61.16;99504.00;7311949;19;130472;-38
2022/08/22 10:03:10;;;;;;;39.88;3.03;;;;;;;25.91;59.47;99516.53;7312194;19;129294;-40
2022/08/22 10:05:58;;;;;;;18.02;1.50;;;;;;;25.91;61.26;99506.00;7312466;19;128759;-38
2022/08/22 10:08:56;;;;;;;17.63;1.70;;;;;;;25.92;61.30;99505.00;7313945;19;130503;-38
2022/08/22 10:11:25;;;;;;;27.50;2.20;;;;;;;25.57;55.31;99497.50;7312538;19;130318;-38
2022/08/22 10:14:07;;;;;;;17.23;1.60;;;;;;;25.62;55.75;99493.38;7313826;19;129148;-40
2022/08/22 10:16:59;;;;;;;18.15;1.70;;;;;;;25.77;59.79;99511.94;7312657;19;128912;-39
2022/08/22 10:19:30;;;;;;;5.15;0.57;;;;;;;25.81;59.39;99505.34;7313723;19;130802;-40
2022/08/22 10:22:14;;;;;;;15.15;1.45;;;;;;;25.87;60.37;99503.84;7309426;19;131257;-38
2022/08/22 10:24:58;;;;;;;15.70;1.52;;;;;;;25.89;59.17;99502.69;7312110;19;129566;-37
2022/08/22 10:27:49;;;;;;;15.07;1.35;;;;;;;25.92;60.58;99512.88;7313047;19;129253;-38
2022/08/22 10:30:20;;;;;;;14.95;1.40;;;;;;;25.91;59.41;99506.00;7312878;19;130099;-39
2022/08/22 10:32:59;;;;;;;18.77;1.73;;;;;;;25.89;60.86;99513.22;7311396;19;130223;-39
2022/08/22 10:35:32;;;;;;;35.28;2.92;;;;;;;25.88;60.16;99510.78;7310060;19;129596;-38
2022/08/22 10:38:05;;;;;;;33.80;2.78;;;;;;;25.90;59.27;99514.88;7312227;19;128904;-39
2022/08/22 10:40:38;;;;;;;16.75;1.45;;;;;;;25.91;59.56;99506.00;7312655;19;130852;-37
2022/08/22 10:43:12;;;;;;;15.10;1.30;;;;;;;25.89;58.46;99518.50;7311504;19;130289;-40
2022/08/22 10:45:44;;;;;;;15.65;1.50;;;;;;;25.90;60.08;99506.16;7309713;19;129134;-39
2022/08/22 10:48:10;;;;;;;13.65;1.25;;;;;;;25.90;59.47;99506.97;7311403;19;129068;-39
2022/08/22 10:50:41;;;;;;;43.80;3.43;;;;;;;25.84;59.61;99496.28;7311991;19;130119;-38
2022/08/22 10:53:32;;;;;;;6.93;0.75;;;;;;;25.91;60.45;99515.69;7311880;19;129092;-40
2022/08/22 10:56:05;;;;;;;24.27;2.15;;;;;;;25.83;57.60;99503.38;7309685;19;129092;-40
2022/08/22 10:58:40;;;;;;;17.50;1.55;;;;;;;25.62;56.48;99508.34;7312586;19;128827;-40
2022/08/22 11:01:10;;;;;;;15.35;1.30;;;;;;;25.68;55.25;99512.97;7310253;19;130011;-40
2022/08/22 11:03:55;;;;;;;7.03;0.77;;;;;;;25.76;59.29;99507.69;7311314;19;130295;-41
2022/08/22 11:06:49;;;;;;;9.45;0.88;;;;;;;25.75;60.20;99503.38;7311896;19;130671;-40
2022/08/22 11:09:37;;;;;;;13.98;1.23;;;;;;;25.89;60.16;99515.88;7311109;19;128869;-37
2022/08/22 11:12:36;;;;;;;16.10;1.50;;;;;;;25.90;60.22;99514.88;7310759;19;130179;-39
2022/08/22 11:15:22;;;;;;;18.30;1.67;;;;;;;25.91;60.25;99520.97;7314010;19;131201;-40
2022/08/22 11:18:19;;;;;;;17.13;1.42;;;;;;;25.90;60.37;99519.34;7318149;19;130205;-39
2022/08/22 11:21:22;;;;;;;15.02;1.30;;;;;;;25.86;60.72;99516.22;7318178;19;128838;-39
2022/08/22 11:24:16;;;;;;;16.80;1.52;;;;;;;25.94;60.73;99525.88;7316796;19;130449;-38
2022/08/22 11:26:56;;;;;;;22.38;2.05;;;;;;;25.91;60.37;99521.78;7318404;19;130995;-39
2022/08/22 11:29:55;;;;;;;3.65;0.43;;;;;;;25.92;60.67;99523.44;7318649;19;128725;-38
2022/08/22 11:32:48;;;;;;;30.90;2.47;;;;;;;25.91;61.06;99516.53;7317015;19;128852;-39
2022/08/22 11:35:21;;;;;;;34.47;2.80;;;;;;;25.88;59.84;99511.59;7316309;19;130089;-39
2022/08/22 11:38:13;;;;;;;19.52;1.77;;;;;;;25.89;60.15;99518.50;7318127;19;130442;-39
2022/08/22 11:41:04;;;;;;;23.02;1.92;;;;;;;25.91;60.82;99527.06;7316106;19;129688;-38
2022/08/22 11:43:33;;;;;;;31.80;2.55;;;;;;;25.72;56.33;99526.63;7316871;19;129749;-39
2022/08/22 11:46:22;;;;;;;20.83;1.83;;;;;;;25.58;54.58;99528.91;7315779;19;130318;-39
2022/08/22 11:49:08;;;;;;;16.02;1.40;;;;;;;25.69;58.86;99527.75;7316973;19;129198;-39
2022/08/22 11:51:56;;;;;;;34.67;3.10;;;;;;;25.78;59.70;99526.78;7317375;19;129389;-40
2022/08/22 11:54:48;;;;;;;17.58;1.48;;;;;;;25.83;60.62;99534.16;7316744;19;129344;-38
2022/08/22 11:57:22;;;;;;;23.40;2.20;;;;;;;25.85;59.13;99525.09;7317481;19;129714;-41
2022/08/22 12:00:17;;;;;;;14.82;1.38;;;;;;;25.88;60.19;99530.03;7316431;19;129633;-40
2022/08/22 12:02:58;;;;;;;17.40;1.60;;;;;;;25.89;58.46;99523.78;7316593;19;128861;-38
2022/08/22 12:05:28;;;;;;;16.23;1.38;;;;;;;25.90;59.95;99521.97;7315021;19;128906;-40
2022/08/22 12:08:25;;;;;;;16.10;1.35;;;;;;;25.88;61.17;99519.50;7315968;19;129076;-39
2022/08/22 12:11:12;;;;;;;6.15;0.60;;;;;;;25.83;60.90;99519.19;7315960;19;129346;-41
2022/08/22 12:14:03;;;;;;;16.80;1.50;;;;;;;25.91;60.84;99527.06;7315805;19;129068;-41
2022/08/22 12:16:43;;;;;;;14.57;1.35;;;;;;;25.79;60.65;99498.59;7316007;19;129263;-39
2022/08/22 12:19:20;;;;;;;15.13;1.35;;;;;;;25.88;60.80;99516.88;7316407;19;130171;-41
2022/08/22 12:22:18;;;;;;;18.13;1.70;;;;;;;25.80;60.89;99506.34;7313881;19;129970;-39